Arvin, California
Current Conditions -  °F | °C
As of 4:54 AM on Friday 24 Oct 2014 (Local Time) from KBFL Reporting Station
Clear Clear  
Wind Chill: 13°   Ceiling: Unl
Heat Index: 13°   Visibility: 10mi
Dew Point:   Wind: 3mph
Humidity: 59%   Direction: 20°NNE
Pressure: 29.97"   Gusts: NA
Location:  35.21°N, 118.82°W
Report Text: KBFL 241154Z AUTO 02003KT 10SM CLR 13/05 A2997 RMK AO2 SLP146 T01280050 10189 20128 56005
Loading
Personal Weather Stations






























Interactive Weather Map
Tropical Storm Tracking
New forecast layout! Learn more

10-Day Weather Forecast

Advertisements
Track Severe Weather on mobile